If you wish to contribute or participate in the discussions about articles you are invited to join SKYbrary as a registered user

 Actions

Benbecula Airport

From SKYbrary Wiki

EGPL
Airport
ICAO: EGPL – IATA: BEB
Summary
Name Benbecula Airport
Region Europe
Territory United Kingdom GB.gif
Location , Scotland
Serving Benbecula
Elevation 5.791 m
19 ft
19 ft5.791 m
Type medium airport
Coordinates 57° 28' 52.00" N, 7° 21' 46.00" W
Runways
Designator Length Width Surface ROPS
6/24 1836 m6,023.622 ft
46 m150.919 ft
ASP /
17/35 1220 m4,002.625 ft
46 m150.919 ft
ASP /


METAR
Observation EGPL 161350Z 15011KT 9999 FEW015 BKN040 10/06 Q1018
Station Benbecula
Date/Time 16 April 2019 13:50:00
Wind direction 150°
Wind speed 11 kts
Lowest cloud amount few clouds
Temperature 10°C
Dew point 6°C
Humidity 76%
QNH 1018 hPa
Weather condition n/a